Time;durP1;ratioP1;P1;durP2;ratioP2;P2;SDS_P1;SDS_P2;PMS_P1;PMS_P2;Temp;Humidity;BMP_temperature;BMP_pressure;BME280_temperature;BME280_humidity;BME280_pressure;Samples;Min_cycle;Max_cycle;Signal;HPM_P1;HPM_P2
2021/04/18 00:00:18;;;;;;;8.98;4.65;;;;;;;;;;3588173;40;20040;-56
2021/04/18 00:02:47;;;;;;;14.13;6.18;;;;;;;;;;3590198;39;20557;-57
2021/04/18 00:05:14;;;;;;;14.75;6.40;;;;;;;;;;3588432;39;20032;-55
2021/04/18 00:07:39;;;;;;;6.63;4.47;;;;;;;;;;3587433;40;20028;-57
2021/04/18 00:10:06;;;;;;;12.30;6.05;;;;;;;;;;3587443;39;20039;-53
2021/04/18 00:12:32;;;;;;;14.65;6.60;;;;;;;;;;3589174;39;20126;-57
2021/04/18 00:14:57;;;;;;;9.13;6.38;;;;;;;;;;3588949;39;20049;-54
2021/04/18 00:17:23;;;;;;;16.42;7.03;;;;;;;;;;3591719;40;20461;-55
2021/04/18 00:19:48;;;;;;;9.65;6.70;;;;;;;;;;3586581;40;20454;-58
2021/04/18 00:22:13;;;;;;;12.65;7.53;;;;;;;;;;3588712;39;20066;-58
2021/04/18 00:24:39;;;;;;;15.98;7.45;;;;;;;;;;3588706;40;20036;-56
2021/04/18 00:27:05;;;;;;;12.05;6.50;;;;;;;;;;3588303;39;20591;-56
2021/04/18 00:29:31;;;;;;;9.05;5.07;;;;;;;;;;3587674;40;20065;-57
2021/04/18 00:31:56;;;;;;;7.75;4.60;;;;;;;;;;3589371;40;20037;-56
2021/04/18 00:34:22;;;;;;;6.68;4.22;;;;;;;;;;3588344;40;20032;-58
2021/04/18 00:36:48;;;;;;;9.02;4.20;;;;;;;;;;3587153;39;20051;-56
2021/04/18 00:39:13;;;;;;;6.88;3.63;;;;;;;;;;3589704;40;20033;-57
2021/04/18 00:41:39;;;;;;;7.25;4.03;;;;;;;;;;3590167;39;20037;-58
2021/04/18 00:44:05;;;;;;;6.07;3.83;;;;;;;;;;3588056;40;20149;-55
2021/04/18 00:46:30;;;;;;;7.18;4.50;;;;;;;;;;3587977;39;20355;-58
2021/04/18 00:48:55;;;;;;;9.88;4.93;;;;;;;;;;3589321;40;20037;-56
2021/04/18 00:51:21;;;;;;;6.53;4.35;;;;;;;;;;3588470;39;20029;-57
2021/04/18 00:53:46;;;;;;;5.72;3.60;;;;;;;;;;3589938;40;20047;-56
2021/04/18 00:56:12;;;;;;;7.20;4.50;;;;;;;;;;3591835;39;20036;-55
2021/04/18 00:58:38;;;;;;;9.48;4.32;;;;;;;;;;3589060;39;20029;-58
2021/04/18 01:01:05;;;;;;;13.40;4.25;;;;;;;;;;3589467;40;20550;-55
2021/04/18 01:03:31;;;;;;;6.72;3.97;;;;;;;;;;3590262;39;20032;-55
2021/04/18 01:05:57;;;;;;;7.30;3.92;;;;;;;;;;3588385;40;20323;-55
2021/04/18 01:08:22;;;;;;;11.68;4.10;;;;;;;;;;3588739;40;20034;-54
2021/04/18 01:10:48;;;;;;;7.85;4.20;;;;;;;;;;3587065;39;20032;-56
2021/04/18 01:13:13;;;;;;;7.70;4.07;;;;;;;;;;3589334;40;20032;-54
2021/04/18 01:15:39;;;;;;;11.10;4.70;;;;;;;;;;3589148;39;20072;-54
2021/04/18 01:18:04;;;;;;;8.88;4.10;;;;;;;;;;3588964;40;20338;-53
2021/04/18 01:20:30;;;;;;;7.38;3.83;;;;;;;;;;3587739;39;20049;-55
2021/04/18 01:22:55;;;;;;;6.68;3.50;;;;;;;;;;3588304;40;20024;-58
2021/04/18 01:25:21;;;;;;;6.20;3.53;;;;;;;;;;3589687;40;20036;-56
2021/04/18 01:27:48;;;;;;;11.98;3.58;;;;;;;;;;3587044;39;20028;-56
2021/04/18 01:30:18;;;;;;;6.70;4.03;;;;;;;;;;3589393;40;20082;-56
2021/04/18 01:32:46;;;;;;;10.57;3.80;;;;;;;;;;3589804;40;20040;-55
2021/04/18 01:35:13;;;;;;;14.52;4.03;;;;;;;;;;3590847;39;20031;-56
2021/04/18 01:37:39;;;;;;;8.57;3.60;;;;;;;;;;3588928;40;20044;-57
2021/04/18 01:40:06;;;;;;;6.72;3.35;;;;;;;;;;3590789;39;20043;-59
2021/04/18 01:42:33;;;;;;;7.15;3.42;;;;;;;;;;3591845;39;20028;-58
2021/04/18 01:44:59;;;;;;;7.88;3.55;;;;;;;;;;3588695;39;20033;-56
2021/04/18 01:47:24;;;;;;;6.88;3.85;;;;;;;;;;3589764;40;20035;-56
2021/04/18 01:49:50;;;;;;;7.18;3.80;;;;;;;;;;3588185;40;20113;-57
2021/04/18 01:52:15;;;;;;;7.70;4.00;;;;;;;;;;3589078;40;20072;-54
2021/04/18 01:54:40;;;;;;;7.57;3.80;;;;;;;;;;3587790;40;20105;-56
2021/04/18 01:57:06;;;;;;;6.90;3.42;;;;;;;;;;3588936;40;20132;-54
2021/04/18 01:59:32;;;;;;;13.85;4.13;;;;;;;;;;3588685;39;20395;-56
2021/04/18 02:02:08;;;;;;;6.55;3.53;;;;;;;;;;3590013;39;20040;-53
2021/04/18 02:04:33;;;;;;;7.75;3.78;;;;;;;;;;3589434;39;20038;-56
2021/04/18 02:06:59;;;;;;;8.75;3.80;;;;;;;;;;3588526;40;20032;-56
2021/04/18 02:09:24;;;;;;;10.98;3.70;;;;;;;;;;3589741;40;20128;-57
2021/04/18 02:11:50;;;;;;;8.27;3.55;;;;;;;;;;3587878;40;20036;-56
2021/04/18 02:14:15;;;;;;;10.93;4.63;;;;;;;;;;3588453;40;20040;-55
2021/04/18 02:16:41;;;;;;;6.88;3.92;;;;;;;;;;3589441;40;20094;-54
2021/04/18 02:19:06;;;;;;;10.57;4.07;;;;;;;;;;3589172;40;20037;-53
2021/04/18 02:21:31;;;;;;;7.78;3.67;;;;;;;;;;3588600;39;20033;-51
2021/04/18 02:23:57;;;;;;;8.25;4.20;;;;;;;;;;3588586;39;20035;-55
2021/04/18 02:26:23;;;;;;;7.13;4.10;;;;;;;;;;3588041;40;20622;-54
2021/04/18 02:28:48;;;;;;;6.60;3.95;;;;;;;;;;3588397;40;20040;-53
2021/04/18 02:31:14;;;;;;;8.05;4.25;;;;;;;;;;3589768;40;20377;-56
2021/04/18 02:33:39;;;;;;;9.57;4.80;;;;;;;;;;3587867;39;20032;-55
2021/04/18 02:36:05;;;;;;;9.50;4.25;;;;;;;;;;3587495;40;20286;-56
2021/04/18 02:38:31;;;;;;;8.98;4.28;;;;;;;;;;3587960;39;20072;-55
2021/04/18 02:40:56;;;;;;;5.00;3.45;;;;;;;;;;3587538;40;20044;-55
2021/04/18 02:43:22;;;;;;;5.75;3.45;;;;;;;;;;3588823;40;20024;-55
2021/04/18 02:45:47;;;;;;;13.18;5.13;;;;;;;;;;3588561;39;20456;-52
2021/04/18 02:48:12;;;;;;;8.18;4.25;;;;;;;;;;3587382;40;20047;-54
2021/04/18 02:50:38;;;;;;;7.43;4.13;;;;;;;;;;3586132;39;20029;-52
2021/04/18 02:53:03;;;;;;;7.47;4.15;;;;;;;;;;3589890;39;20291;-55
2021/04/18 02:55:29;;;;;;;8.25;4.18;;;;;;;;;;3589072;39;20067;-56
2021/04/18 02:57:54;;;;;;;8.63;4.93;;;;;;;;;;3588886;40;20055;-54
2021/04/18 03:00:20;;;;;;;5.57;4.03;;;;;;;;;;3588314;40;20511;-57
2021/04/18 03:02:45;;;;;;;11.88;4.93;;;;;;;;;;3588087;39;20072;-57
2021/04/18 03:05:11;;;;;;;10.13;4.93;;;;;;;;;;3588225;40;20081;-55
2021/04/18 03:07:36;;;;;;;13.15;4.53;;;;;;;;;;3587973;40;20068;-55
2021/04/18 03:10:04;;;;;;;10.60;4.43;;;;;;;;;;3587675;40;20078;-54
2021/04/18 03:12:29;;;;;;;9.90;4.03;;;;;;;;;;3587901;39;20044;-56
2021/04/18 03:14:55;;;;;;;7.93;4.35;;;;;;;;;;3587518;40;20083;-56
2021/04/18 03:17:20;;;;;;;6.75;3.72;;;;;;;;;;3588924;40;20036;-55
2021/04/18 03:19:45;;;;;;;10.88;4.15;;;;;;;;;;3587783;40;20077;-55
2021/04/18 03:22:13;;;;;;;8.40;3.95;;;;;;;;;;3589490;40;20028;-56
2021/04/18 03:24:38;;;;;;;7.25;4.00;;;;;;;;;;3588710;40;20040;-55
2021/04/18 03:27:04;;;;;;;10.30;4.25;;;;;;;;;;3588838;40;20041;-56
2021/04/18 03:29:29;;;;;;;8.35;3.97;;;;;;;;;;3588898;39;20040;-53
2021/04/18 03:31:55;;;;;;;8.00;3.90;;;;;;;;;;3587527;39;20040;-54
2021/04/18 03:34:20;;;;;;;9.27;4.13;;;;;;;;;;3587766;39;20039;-54
2021/04/18 03:36:46;;;;;;;7.47;4.43;;;;;;;;;;3587929;40;20033;-56
2021/04/18 03:39:11;;;;;;;6.13;3.95;;;;;;;;;;3587176;40;20117;-53
2021/04/18 03:41:36;;;;;;;5.80;3.47;;;;;;;;;;3588772;40;20091;-56
2021/04/18 03:44:02;;;;;;;7.13;3.88;;;;;;;;;;3588521;40;20409;-53
2021/04/18 03:46:28;;;;;;;12.27;4.60;;;;;;;;;;3589134;39;20067;-52
2021/04/18 03:48:53;;;;;;;8.73;3.85;;;;;;;;;;3591066;39;20076;-52
2021/04/18 03:51:19;;;;;;;8.07;3.85;;;;;;;;;;3588153;40;20025;-51
2021/04/18 03:53:44;;;;;;;5.95;3.80;;;;;;;;;;3587045;39;20052;-56
2021/04/18 03:56:10;;;;;;;7.63;4.53;;;;;;;;;;3587837;40;20049;-54
2021/04/18 03:58:35;;;;;;;11.85;4.10;;;;;;;;;;3587832;39;20501;-55
2021/04/18 04:01:01;;;;;;;8.60;4.65;;;;;;;;;;3588947;40;20425;-52
2021/04/18 04:03:26;;;;;;;8.75;4.63;;;;;;;;;;3589166;39;20036;-52
2021/04/18 04:05:51;;;;;;;8.98;4.63;;;;;;;;;;3592779;39;20037;-55
2021/04/18 04:08:17;;;;;;;7.63;4.43;;;;;;;;;;3590540;39;20033;-55
2021/04/18 04:10:42;;;;;;;10.77;5.32;;;;;;;;;;3587820;40;20032;-49
2021/04/18 04:13:08;;;;;;;7.95;4.25;;;;;;;;;;3588957;40;20043;-53
2021/04/18 04:15:33;;;;;;;12.35;4.65;;;;;;;;;;3589016;40;20134;-54
2021/04/18 04:17:58;;;;;;;7.65;4.55;;;;;;;;;;3587383;40;20033;-53
2021/04/18 04:20:24;;;;;;;7.38;4.32;;;;;;;;;;3589272;40;20068;-57
2021/04/18 04:22:49;;;;;;;6.63;3.85;;;;;;;;;;3587333;40;20029;-56
2021/04/18 04:25:15;;;;;;;7.32;4.70;;;;;;;;;;3588065;40;20040;-52
2021/04/18 04:27:40;;;;;;;9.20;4.57;;;;;;;;;;3588486;40;20341;-51
2021/04/18 04:30:07;;;;;;;7.97;5.10;;;;;;;;;;3589439;40;20432;-50
2021/04/18 04:32:32;;;;;;;7.07;4.30;;;;;;;;;;3588268;39;20032;-55
2021/04/18 04:34:58;;;;;;;8.02;4.80;;;;;;;;;;3589645;40;20410;-51
2021/04/18 04:37:24;;;;;;;10.75;4.35;;;;;;;;;;3588618;39;20485;-53
2021/04/18 04:39:49;;;;;;;7.10;4.53;;;;;;;;;;3588222;40;20033;-54
2021/04/18 04:42:14;;;;;;;9.98;4.55;;;;;;;;;;3587317;40;20084;-55
2021/04/18 04:44:40;;;;;;;8.48;4.60;;;;;;;;;;3588079;40;20113;-55
2021/04/18 04:47:05;;;;;;;7.10;4.53;;;;;;;;;;3589862;39;20051;-57
2021/04/18 04:49:31;;;;;;;10.50;5.15;;;;;;;;;;3588141;39;20064;-56
2021/04/18 04:51:56;;;;;;;8.18;4.85;;;;;;;;;;3587293;40;20029;-55
2021/04/18 04:54:22;;;;;;;11.48;4.93;;;;;;;;;;3589040;40;20352;-57
2021/04/18 04:56:47;;;;;;;11.35;4.50;;;;;;;;;;3588016;40;20617;-56
2021/04/18 04:59:13;;;;;;;10.40;5.88;;;;;;;;;;3588744;39;20098;-56
2021/04/18 05:01:38;;;;;;;12.80;5.30;;;;;;;;;;3589122;39;20076;-54
2021/04/18 05:04:04;;;;;;;9.10;5.13;;;;;;;;;;3587676;40;20544;-52
2021/04/18 05:06:30;;;;;;;11.27;5.60;;;;;;;;;;3586008;39;20045;-55
2021/04/18 05:08:55;;;;;;;7.72;5.35;;;;;;;;;;3586675;40;20364;-55
2021/04/18 05:11:20;;;;;;;9.68;5.63;;;;;;;;;;3588003;39;20032;-53
2021/04/18 05:13:46;;;;;;;9.15;4.93;;;;;;;;;;3587613;39;20358;-55
2021/04/18 05:16:11;;;;;;;9.30;5.18;;;;;;;;;;3588126;40;20380;-55
2021/04/18 05:18:37;;;;;;;10.30;5.95;;;;;;;;;;3587443;40;20048;-56
2021/04/18 05:21:02;;;;;;;9.75;5.88;;;;;;;;;;3586873;40;20063;-57
2021/04/18 05:23:28;;;;;;;8.10;5.60;;;;;;;;;;3587549;39;20063;-54
2021/04/18 05:25:54;;;;;;;8.18;4.38;;;;;;;;;;3586551;39;20125;-53
2021/04/18 05:28:19;;;;;;;5.88;4.30;;;;;;;;;;3588055;40;20301;-51
2021/04/18 05:30:45;;;;;;;6.40;4.25;;;;;;;;;;3587989;40;20400;-52
2021/04/18 05:33:11;;;;;;;8.85;5.30;;;;;;;;;;3587903;39;20327;-53
2021/04/18 05:35:36;;;;;;;6.57;4.38;;;;;;;;;;3586887;40;20056;-55
2021/04/18 05:38:02;;;;;;;9.63;4.70;;;;;;;;;;3587001;40;20517;-52
2021/04/18 05:40:27;;;;;;;9.88;5.25;;;;;;;;;;3587461;39;20427;-54
2021/04/18 05:42:53;;;;;;;6.65;4.22;;;;;;;;;;3587776;39;20033;-54
2021/04/18 05:45:19;;;;;;;10.30;4.47;;;;;;;;;;3587222;40;20028;-55
2021/04/18 05:47:44;;;;;;;13.88;4.93;;;;;;;;;;3588550;40;20032;-54
2021/04/18 05:50:11;;;;;;;9.43;4.80;;;;;;;;;;3589083;39;20109;-54
2021/04/18 05:52:36;;;;;;;16.58;5.78;;;;;;;;;;3586405;40;20095;-55
2021/04/18 05:55:02;;;;;;;7.78;5.28;;;;;;;;;;3586944;40;20060;-53
2021/04/18 05:57:27;;;;;;;10.13;5.38;;;;;;;;;;3587126;39;20032;-54
2021/04/18 05:59:52;;;;;;;9.77;5.18;;;;;;;;;;3586615;40;20040;-55
2021/04/18 06:02:18;;;;;;;9.65;5.20;;;;;;;;;;3587668;40;20033;-54
2021/04/18 06:04:43;;;;;;;8.55;5.40;;;;;;;;;;3587405;39;20047;-56
2021/04/18 06:07:08;;;;;;;11.73;5.75;;;;;;;;;;3586913;40;20150;-55
2021/04/18 06:09:34;;;;;;;9.10;5.15;;;;;;;;;;3587571;40;20048;-57
2021/04/18 06:11:59;;;;;;;6.30;4.43;;;;;;;;;;3586085;40;20585;-55
2021/04/18 06:14:25;;;;;;;9.90;5.40;;;;;;;;;;3589521;39;20133;-58
2021/04/18 06:16:51;;;;;;;10.93;5.38;;;;;;;;;;3586365;40;20036;-54
2021/04/18 06:19:18;;;;;;;9.15;5.25;;;;;;;;;;3588711;40;20116;-57
2021/04/18 06:21:44;;;;;;;12.15;5.90;;;;;;;;;;3588421;40;20037;-55
2021/04/18 06:24:09;;;;;;;11.63;5.70;;;;;;;;;;3588941;40;20040;-57
2021/04/18 06:26:35;;;;;;;8.20;5.78;;;;;;;;;;3590812;39;20067;-57
2021/04/18 06:29:00;;;;;;;11.23;5.05;;;;;;;;;;3588237;40;20098;-56
2021/04/18 06:31:26;;;;;;;14.75;5.82;;;;;;;;;;3590632;39;20129;-56
2021/04/18 06:33:51;;;;;;;20.48;6.07;;;;;;;;;;3589302;39;20052;-55
2021/04/18 06:36:17;;;;;;;8.00;5.28;;;;;;;;;;3588542;40;20128;-57
2021/04/18 06:38:42;;;;;;;10.07;6.00;;;;;;;;;;3588461;40;20041;-55
2021/04/18 06:41:10;;;;;;;10.60;6.43;;;;;;;;;;3588215;40;20157;-56
2021/04/18 06:43:36;;;;;;;11.65;6.32;;;;;;;;;;3591455;39;20036;-54
2021/04/18 06:46:04;;;;;;;13.48;6.25;;;;;;;;;;3588650;40;20028;-55
2021/04/18 06:48:30;;;;;;;10.90;7.10;;;;;;;;;;3589896;40;20071;-56
2021/04/18 06:50:55;;;;;;;14.32;7.10;;;;;;;;;;3587515;40;20044;-54
2021/04/18 06:53:21;;;;;;;12.82;8.18;;;;;;;;;;3590433;40;20121;-56
2021/04/18 06:55:46;;;;;;;14.65;7.78;;;;;;;;;;3588584;39;20028;-55
2021/04/18 06:58:12;;;;;;;10.95;7.68;;;;;;;;;;3588331;40;20041;-55
2021/04/18 07:00:37;;;;;;;10.55;7.20;;;;;;;;;;3588036;40;20053;-55
2021/04/18 07:03:15;;;;;;;13.80;7.15;;;;;;;;;;3587943;39;20037;-54
2021/04/18 07:05:43;;;;;;;12.88;8.40;;;;;;;;;;3590487;39;20029;-55
2021/04/18 07:08:25;;;;;;;9.70;7.78;;;;;;;;;;3588378;39;20040;-54
2021/04/18 07:10:52;;;;;;;11.25;6.45;;;;;;;;;;3588665;40;20359;-55
2021/04/18 07:13:19;;;;;;;13.38;9.07;;;;;;;;;;3587524;40;20075;-51
2021/04/18 07:15:47;;;;;;;13.38;8.27;;;;;;;;;;3588006;40;20477;-55
2021/04/18 07:18:35;;;;;;;11.15;8.55;;;;;;;;;;3588568;39;20272;-55
2021/04/18 07:21:01;;;;;;;19.92;8.75;;;;;;;;;;3588159;40;20063;-54
2021/04/18 07:23:29;;;;;;;12.35;8.20;;;;;;;;;;3587930;39;20121;-54
2021/04/18 07:25:59;;;;;;;10.25;7.53;;;;;;;;;;3588238;40;20452;-55
2021/04/18 07:28:26;;;;;;;12.98;8.70;;;;;;;;;;3589130;39;20086;-56
2021/04/18 07:30:55;;;;;;;10.98;8.57;;;;;;;;;;3590296;40;20033;-55
2021/04/18 07:33:20;;;;;;;11.68;8.45;;;;;;;;;;3589962;39;20040;-54
2021/04/18 07:36:04;;;;;;;16.60;10.18;;;;;;;;;;3590083;40;20034;-56
2021/04/18 07:42:58;;;;;;;11.65;9.30;;;;;;;;;;3578127;40;20044;-56
2021/04/18 07:46:28;;;;;;;13.30;10.52;;;;;;;;;;3588505;40;20369;-54
2021/04/18 07:49:25;;;;;;;20.40;10.88;;;;;;;;;;3591868;39;20044;-55
2021/04/18 07:52:25;;;;;;;22.33;11.15;;;;;;;;;;3587643;40;20043;-57
2021/04/18 07:55:21;;;;;;;13.23;10.25;;;;;;;;;;3588653;40;20037;-55
2021/04/18 07:58:25;;;;;;;14.95;9.93;;;;;;;;;;3591620;40;20044;-56
2021/04/18 08:01:36;;;;;;;18.08;10.13;;;;;;;;;;3590190;40;20787;-54
2021/04/18 08:05:03;;;;;;;14.68;11.15;;;;;;;;;;3590412;39;20399;-51
2021/04/18 08:08:21;;;;;;;16.50;10.80;;;;;;;;;;3591869;40;20362;-55
2021/04/18 08:11:25;;;;;;;14.73;10.82;;;;;;;;;;3591927;40;20150;-54
2021/04/18 08:22:02;;;;;;;16.00;10.25;;;;;;;;;;3564670;40;20053;-53
2021/04/18 08:25:40;;;;;;;;;;;;;;;;;;;;;
2021/04/18 08:29:18;;;;;;;15.48;10.38;;;;;;;;;;3591426;39;20264;-52
2021/04/18 08:32:48;;;;;;;;;;;;;;;;;;;;;
2021/04/18 08:36:27;;;;;;;18.90;11.50;;;;;;;;;;3592021;39;20086;-53
2021/04/18 08:43:27;;;;;;;;;;;;;;;;;;3574772;40;20036;-56
2021/04/18 08:45:57;;;;;;;15.73;10.52;;;;;;;;;;3583462;40;19932;-54
2021/04/18 08:48:22;;;;;;;15.68;10.63;;;;;;;;;;3587011;40;20040;-55
2021/04/18 08:51:05;;;;;;;12.35;10.73;;;;;;;;;;3588465;40;20531;-55
2021/04/18 08:53:57;;;;;;;13.85;10.70;;;;;;;;;;3587171;40;20062;-54
2021/04/18 08:56:41;;;;;;;;;;;;;;;;;;3587549;40;20442;-54
2021/04/18 08:59:10;;;;;;;17.15;11.18;;;;;;;;;;3586800;40;19948;-55
2021/04/18 09:01:35;;;;;;;17.10;11.05;;;;;;;;;;3588099;40;20249;-54
2021/04/18 09:04:02;;;;;;;20.95;11.55;;;;;;;;;;3589651;39;20136;-56
2021/04/18 09:06:36;;;;;;;15.65;11.68;;;;;;;;;;3587163;39;20132;-55
2021/04/18 09:09:06;;;;;;;19.80;11.88;;;;;;;;;;3586910;40;20068;-55
2021/04/18 09:11:37;;;;;;;14.23;11.13;;;;;;;;;;3588570;40;20062;-55
2021/04/18 09:14:04;;;;;;;15.88;11.77;;;;;;;;;;3587888;39;20319;-56
2021/04/18 09:16:32;;;;;;;16.52;10.82;;;;;;;;;;3588319;39;20063;-54
2021/04/18 09:19:29;;;;;;;15.15;11.20;;;;;;;;;;3587925;39;20039;-57
2021/04/18 09:22:08;;;;;;;17.13;12.05;;;;;;;;;;3587447;40;20399;-54
2021/04/18 09:24:43;;;;;;;14.05;11.35;;;;;;;;;;3587005;40;20098;-53
2021/04/18 09:27:11;;;;;;;14.77;11.48;;;;;;;;;;3587078;40;20041;-54
2021/04/18 09:29:49;;;;;;;15.35;12.13;;;;;;;;;;3588501;39;20044;-53
2021/04/18 09:32:17;;;;;;;15.32;11.07;;;;;;;;;;3591631;39;20425;-55
2021/04/18 09:34:44;;;;;;;15.73;11.65;;;;;;;;;;3586622;39;20040;-55
2021/04/18 09:37:30;;;;;;;16.58;11.25;;;;;;;;;;3586691;40;20037;-54
2021/04/18 09:39:59;;;;;;;16.65;11.70;;;;;;;;;;3587093;40;20029;-53
2021/04/18 09:42:27;;;;;;;14.02;11.25;;;;;;;;;;3588355;40;20032;-55
2021/04/18 09:45:04;;;;;;;14.40;10.98;;;;;;;;;;3587711;40;20631;-52
2021/04/18 09:47:29;;;;;;;15.77;11.70;;;;;;;;;;3587592;40;20406;-51
2021/04/18 09:49:57;;;;;;;18.73;11.35;;;;;;;;;;3588739;40;20146;-54
2021/04/18 09:52:39;;;;;;;16.88;12.30;;;;;;;;;;3589683;40;20028;-56
2021/04/18 09:55:14;;;;;;;15.40;11.90;;;;;;;;;;3590506;40;20084;-54
2021/04/18 09:57:41;;;;;;;18.20;12.90;;;;;;;;;;3590004;40;20494;-56
2021/04/18 10:00:30;;;;;;;16.35;11.52;;;;;;;;;;3589039;40;20122;-55
2021/04/18 10:03:09;;;;;;;16.75;10.98;;;;;;;;;;3589558;39;20109;-55
2021/04/18 10:05:56;;;;;;;15.13;11.40;;;;;;;;;;3590925;39;20040;-55
2021/04/18 10:08:27;;;;;;;13.85;10.95;;;;;;;;;;3589262;40;20390;-55
2021/04/18 10:10:55;;;;;;;14.80;11.52;;;;;;;;;;3590716;40;20033;-55
2021/04/18 10:13:48;;;;;;;16.02;10.82;;;;;;;;;;3589988;40;20035;-55
2021/04/18 10:16:14;;;;;;;18.33;12.95;;;;;;;;;;3588967;40;20053;-55
2021/04/18 10:18:41;;;;;;;18.45;11.52;;;;;;;;;;3588387;40;20048;-56
2021/04/18 10:21:21;;;;;;;19.30;12.38;;;;;;;;;;3589491;40;20290;-52
2021/04/18 10:23:49;;;;;;;14.63;11.25;;;;;;;;;;3589371;40;20048;-55
2021/04/18 10:26:18;;;;;;;15.43;11.27;;;;;;;;;;3589075;40;20116;-53
2021/04/18 10:28:48;;;;;;;13.40;10.85;;;;;;;;;;3589614;40;20375;-55
2021/04/18 10:31:14;;;;;;;13.98;10.68;;;;;;;;;;3591729;39;20097;-51
2021/04/18 10:33:40;;;;;;;12.13;10.05;;;;;;;;;;3588339;40;20036;-52
2021/04/18 10:36:06;;;;;;;17.75;10.07;;;;;;;;;;3588507;40;20424;-55
2021/04/18 10:38:31;;;;;;;12.40;10.13;;;;;;;;;;3588976;40;20051;-54
2021/04/18 10:40:57;;;;;;;16.98;11.32;;;;;;;;;;3588579;40;20032;-53
2021/04/18 10:43:22;;;;;;;13.55;10.30;;;;;;;;;;3589539;40;20367;-52
2021/04/18 10:45:48;;;;;;;24.90;21.27;;;;;;;;;;3588861;39;20032;-56
2021/04/18 10:48:13;;;;;;;14.98;11.70;;;;;;;;;;3588506;40;20347;-53
2021/04/18 10:50:39;;;;;;;11.90;9.40;;;;;;;;;;3588021;40;20037;-57
2021/04/18 10:53:04;;;;;;;10.55;9.02;;;;;;;;;;3586640;40;20036;-54
2021/04/18 10:55:30;;;;;;;14.50;9.45;;;;;;;;;;3587854;39;20103;-55
2021/04/18 10:57:55;;;;;;;13.05;9.98;;;;;;;;;;3588054;40;20052;-52
2021/04/18 11:00:21;;;;;;;11.65;8.88;;;;;;;;;;3588933;39;20145;-55
2021/04/18 11:02:47;;;;;;;13.25;9.88;;;;;;;;;;3587704;39;20463;-54
2021/04/18 11:05:13;;;;;;;11.90;9.88;;;;;;;;;;3588415;39;20064;-55
2021/04/18 11:07:38;;;;;;;12.35;9.90;;;;;;;;;;3589727;39;20064;-52
2021/04/18 11:10:06;;;;;;;13.60;9.80;;;;;;;;;;3594612;39;20300;-53
2021/04/18 11:12:31;;;;;;;15.43;10.30;;;;;;;;;;3588234;39;20039;-54
2021/04/18 11:14:57;;;;;;;14.60;9.85;;;;;;;;;;3587896;39;20049;-56
2021/04/18 11:17:22;;;;;;;14.70;10.10;;;;;;;;;;3589842;39;20044;-54
2021/04/18 11:19:49;;;;;;;16.15;11.27;;;;;;;;;;3589780;39;20113;-57
2021/04/18 11:22:16;;;;;;;16.02;10.73;;;;;;;;;;3591937;39;20379;-56
2021/04/18 11:24:41;;;;;;;14.13;10.10;;;;;;;;;;3588983;39;20429;-53
2021/04/18 11:27:06;;;;;;;14.45;11.30;;;;;;;;;;3588852;39;20049;-56
2021/04/18 11:29:33;;;;;;;12.85;9.90;;;;;;;;;;3588907;39;20040;-54
2021/04/18 11:31:58;;;;;;;13.95;9.43;;;;;;;;;;3591394;39;20299;-55
2021/04/18 11:34:24;;;;;;;12.98;9.55;;;;;;;;;;3589169;39;20352;-58
2021/04/18 11:36:49;;;;;;;10.48;8.80;;;;;;;;;;3590309;39;20024;-56
2021/04/18 11:39:15;;;;;;;12.88;8.88;;;;;;;;;;3589599;39;20360;-54
2021/04/18 11:41:41;;;;;;;16.13;10.35;;;;;;;;;;3589622;39;20032;-57
2021/04/18 11:44:07;;;;;;;13.80;9.65;;;;;;;;;;3589067;39;20133;-57
2021/04/18 11:46:33;;;;;;;12.07;9.25;;;;;;;;;;3588441;39;20044;-57
2021/04/18 11:48:59;;;;;;;10.93;8.70;;;;;;;;;;3589566;39;20043;-57
2021/04/18 11:51:24;;;;;;;13.52;9.55;;;;;;;;;;3587883;39;20036;-57
2021/04/18 11:53:50;;;;;;;11.38;8.55;;;;;;;;;;3587907;39;20044;-58
2021/04/18 11:56:15;;;;;;;11.02;8.07;;;;;;;;;;3588970;39;20054;-57
2021/04/18 11:58:42;;;;;;;13.10;8.68;;;;;;;;;;3588439;39;20048;-57
2021/04/18 12:01:07;;;;;;;14.70;9.38;;;;;;;;;;3589349;39;20550;-58
2021/04/18 12:03:32;;;;;;;16.23;10.35;;;;;;;;;;3588903;39;20048;-53
2021/04/18 12:05:58;;;;;;;10.75;8.43;;;;;;;;;;3588081;39;20044;-59
2021/04/18 12:08:24;;;;;;;13.88;9.75;;;;;;;;;;3586943;39;20051;-58
2021/04/18 12:10:53;;;;;;;10.75;8.98;;;;;;;;;;3587553;39;20088;-57
2021/04/18 12:13:22;;;;;;;12.05;9.13;;;;;;;;;;3589150;39;20039;-57
2021/04/18 12:15:47;;;;;;;12.32;8.95;;;;;;;;;;3588866;39;20405;-56
2021/04/18 12:18:13;;;;;;;10.82;8.60;;;;;;;;;;3589738;39;20056;-55
2021/04/18 12:20:39;;;;;;;9.82;7.97;;;;;;;;;;3589653;39;20048;-57
2021/04/18 12:23:04;;;;;;;9.98;7.75;;;;;;;;;;3592058;39;20380;-57
2021/04/18 12:25:30;;;;;;;13.07;7.47;;;;;;;;;;3593258;39;20036;-57
2021/04/18 12:27:55;;;;;;;9.13;8.15;;;;;;;;;;3591023;39;20373;-55
2021/04/18 12:30:21;;;;;;;14.15;8.80;;;;;;;;;;3594143;39;20025;-54
2021/04/18 12:32:47;;;;;;;11.63;7.82;;;;;;;;;;3589958;39;20040;-57
2021/04/18 12:35:14;;;;;;;11.73;7.72;;;;;;;;;;3589868;39;20363;-55
2021/04/18 12:37:40;;;;;;;11.02;7.57;;;;;;;;;;3591471;39;20133;-56
2021/04/18 12:40:06;;;;;;;11.55;7.75;;;;;;;;;;3589622;39;20040;-56
2021/04/18 12:42:32;;;;;;;13.55;9.30;;;;;;;;;;3588554;39;20347;-55
2021/04/18 12:44:57;;;;;;;11.20;8.48;;;;;;;;;;3587667;39;20048;-55
2021/04/18 12:47:22;;;;;;;11.05;7.97;;;;;;;;;;3588562;39;20029;-57
2021/04/18 12:49:48;;;;;;;11.05;7.78;;;;;;;;;;3588343;39;20048;-57
2021/04/18 12:52:14;;;;;;;9.27;7.63;;;;;;;;;;3589656;39;20037;-53
2021/04/18 12:54:40;;;;;;;9.43;7.43;;;;;;;;;;3589384;39;20076;-57
2021/04/18 12:57:06;;;;;;;11.23;8.50;;;;;;;;;;3586968;39;20133;-56
2021/04/18 12:59:34;;;;;;;13.35;9.23;;;;;;;;;;3587280;39;20048;-54
2021/04/18 13:02:00;;;;;;;12.32;8.52;;;;;;;;;;3587134;39;20051;-55
2021/04/18 13:04:25;;;;;;;11.75;8.05;;;;;;;;;;3586636;39;20056;-56
2021/04/18 13:06:51;;;;;;;12.70;9.07;;;;;;;;;;3587241;39;20056;-55
2021/04/18 13:09:17;;;;;;;11.23;8.05;;;;;;;;;;3587179;40;20048;-56
2021/04/18 13:11:42;;;;;;;16.40;7.90;;;;;;;;;;3590475;39;20126;-56
2021/04/18 13:14:08;;;;;;;15.82;8.27;;;;;;;;;;3589159;39;20383;-56
2021/04/18 13:16:33;;;;;;;10.75;7.30;;;;;;;;;;3588015;40;20033;-52
2021/04/18 13:18:58;;;;;;;15.02;8.30;;;;;;;;;;3586936;40;20114;-52
2021/04/18 13:21:24;;;;;;;10.20;8.10;;;;;;;;;;3589684;39;20028;-52
2021/04/18 13:23:54;;;;;;;11.50;8.25;;;;;;;;;;3588555;40;20029;-53
2021/04/18 13:26:21;;;;;;;8.40;7.07;;;;;;;;;;3588998;40;20131;-56
2021/04/18 13:28:46;;;;;;;14.88;8.43;;;;;;;;;;3586472;39;20044;-54
2021/04/18 13:31:12;;;;;;;10.30;8.20;;;;;;;;;;3588343;39;20032;-57
2021/04/18 13:33:37;;;;;;;8.82;7.22;;;;;;;;;;3587259;39;20036;-56
2021/04/18 13:36:03;;;;;;;14.52;7.30;;;;;;;;;;3586856;40;20133;-53
2021/04/18 13:38:28;;;;;;;12.10;8.00;;;;;;;;;;3587924;39;20092;-56
2021/04/18 13:40:54;;;;;;;10.05;7.53;;;;;;;;;;3588558;40;20263;-56
2021/04/18 13:43:19;;;;;;;10.95;7.75;;;;;;;;;;3587591;40;20114;-56
2021/04/18 13:45:44;;;;;;;11.82;7.93;;;;;;;;;;3587773;40;20044;-55
2021/04/18 13:48:10;;;;;;;10.15;7.38;;;;;;;;;;3587992;40;20036;-56
2021/04/18 13:50:36;;;;;;;11.23;7.50;;;;;;;;;;3587242;40;20032;-56
2021/04/18 13:53:01;;;;;;;13.75;7.80;;;;;;;;;;3587124;40;20044;-50
2021/04/18 13:55:27;;;;;;;8.60;7.20;;;;;;;;;;3587895;39;20040;-56
2021/04/18 13:57:52;;;;;;;10.20;6.97;;;;;;;;;;3587316;39;20467;-55
2021/04/18 14:00:19;;;;;;;9.90;7.32;;;;;;;;;;3587025;40;20055;-56
2021/04/18 14:02:45;;;;;;;10.18;6.90;;;;;;;;;;3587790;39;20129;-55
2021/04/18 14:05:12;;;;;;;8.70;7.38;;;;;;;;;;3586196;40;21147;-58
2021/04/18 14:07:38;;;;;;;9.50;6.65;;;;;;;;;;3587023;40;20047;-56
2021/04/18 14:10:05;;;;;;;11.35;7.70;;;;;;;;;;3587099;40;20036;-55
2021/04/18 14:12:31;;;;;;;8.27;6.72;;;;;;;;;;3587074;39;20150;-55
2021/04/18 14:14:56;;;;;;;9.38;7.38;;;;;;;;;;3586641;40;20048;-53
2021/04/18 14:17:21;;;;;;;10.40;6.88;;;;;;;;;;3587145;39;20048;-55
2021/04/18 14:19:47;;;;;;;8.98;6.80;;;;;;;;;;3586324;40;20037;-56
2021/04/18 14:22:13;;;;;;;12.48;6.85;;;;;;;;;;3586546;40;20044;-54
2021/04/18 14:24:38;;;;;;;13.77;7.60;;;;;;;;;;3588272;40;20036;-55
2021/04/18 14:27:06;;;;;;;10.57;7.30;;;;;;;;;;3586479;40;20399;-56
2021/04/18 14:29:31;;;;;;;9.88;7.32;;;;;;;;;;3587219;40;20053;-55
2021/04/18 14:31:57;;;;;;;10.68;7.05;;;;;;;;;;3587387;39;20048;-57
2021/04/18 14:34:22;;;;;;;11.10;6.95;;;;;;;;;;3587425;40;20115;-55
2021/04/18 14:36:47;;;;;;;11.48;7.18;;;;;;;;;;3587637;40;20041;-54
2021/04/18 14:39:13;;;;;;;13.13;7.60;;;;;;;;;;3590904;39;20405;-55
2021/04/18 14:41:38;;;;;;;14.18;7.82;;;;;;;;;;3588238;40;20045;-54
2021/04/18 14:44:04;;;;;;;8.02;6.63;;;;;;;;;;3588280;40;20314;-55
2021/04/18 14:46:34;;;;;;;11.32;7.90;;;;;;;;;;3588543;39;20129;-55
2021/04/18 14:48:59;;;;;;;9.00;6.35;;;;;;;;;;3588079;40;20324;-55
2021/04/18 14:51:25;;;;;;;12.65;7.90;;;;;;;;;;3588675;40;20032;-57
2021/04/18 14:53:50;;;;;;;10.30;7.28;;;;;;;;;;3588413;40;20048;-55
2021/04/18 14:56:16;;;;;;;11.23;7.43;;;;;;;;;;3589532;39;20158;-54
2021/04/18 14:58:41;;;;;;;9.57;7.10;;;;;;;;;;3588025;40;20044;-57
2021/04/18 15:01:06;;;;;;;9.38;6.90;;;;;;;;;;3588898;39;20051;-56